sensor_id;sensor_type;location;lat;lon;timestamp;pressure;altitude;pressure_sealevel;temperature;humidity
38400;BME280;24180;42.676;23.320;2023-04-01T00:01:18;93908.59;;;11.22;100.00
38400;BME280;24180;42.676;23.320;2023-04-01T00:03:44;93882.72;;;11.14;100.00
38400;BME280;24180;42.676;23.320;2023-04-01T00:06:14;93888.72;;;11.14;100.00
38400;BME280;24180;42.676;23.320;2023-04-01T00:08:40;93905.84;;;11.23;100.00
38400;BME280;24180;42.676;23.320;2023-04-01T00:11:06;93881.94;;;11.05;100.00
38400;BME280;24180;42.676;23.320;2023-04-01T00:13:31;93868.69;;;11.00;100.00
38400;BME280;24180;42.676;23.320;2023-04-01T00:15:57;93908.13;;;11.18;100.00
38400;BME280;24180;42.676;23.320;2023-04-01T00:18:23;93905.09;;;11.15;100.00
38400;BME280;24180;42.676;23.320;2023-04-01T00:20:50;93885.41;;;10.90;100.00
38400;BME280;24180;42.676;23.320;2023-04-01T00:23:17;93889.16;;;10.87;100.00
38400;BME280;24180;42.676;23.320;2023-04-01T00:25:44;93899.28;;;10.97;100.00
38400;BME280;24180;42.676;23.320;2023-04-01T00:28:10;93921.47;;;10.99;100.00
38400;BME280;24180;42.676;23.320;2023-04-01T00:30:37;93909.53;;;10.90;100.00
38400;BME280;24180;42.676;23.320;2023-04-01T00:33:02;93884.28;;;10.84;100.00
38400;BME280;24180;42.676;23.320;2023-04-01T00:35:28;93910.34;;;10.91;100.00
38400;BME280;24180;42.676;23.320;2023-04-01T00:37:53;93908.25;;;10.78;100.00
38400;BME280;24180;42.676;23.320;2023-04-01T00:40:38;93869.97;;;10.49;100.00
38400;BME280;24180;42.676;23.320;2023-04-01T00:43:11;93881.59;;;10.61;100.00
38400;BME280;24180;42.676;23.320;2023-04-01T00:45:40;93898.53;;;10.72;100.00
38400;BME280;24180;42.676;23.320;2023-04-01T00:48:10;93888.38;;;10.70;100.00
38400;BME280;24180;42.676;23.320;2023-04-01T00:50:37;93871.22;;;10.61;100.00
38400;BME280;24180;42.676;23.320;2023-04-01T00:53:05;93847.63;;;10.40;100.00
38400;BME280;24180;42.676;23.320;2023-04-01T00:55:34;93860.72;;;10.55;100.00
38400;BME280;24180;42.676;23.320;2023-04-01T00:58:03;93838.44;;;10.46;100.00
38400;BME280;24180;42.676;23.320;2023-04-01T01:00:30;93842.66;;;10.39;100.00
38400;BME280;24180;42.676;23.320;2023-04-01T01:02:56;93831.97;;;10.42;100.00
38400;BME280;24180;42.676;23.320;2023-04-01T01:05:30;93851.53;;;10.36;100.00
38400;BME280;24180;42.676;23.320;2023-04-01T01:10:35;93847.00;;;9.98;100.00
38400;BME280;24180;42.676;23.320;2023-04-01T01:13:22;93847.16;;;9.88;100.00
38400;BME280;24180;42.676;23.320;2023-04-01T01:16:10;93840.69;;;9.92;100.00
38400;BME280;24180;42.676;23.320;2023-04-01T01:24:13;93826.97;;;9.92;100.00
38400;BME280;24180;42.676;23.320;2023-04-01T01:27:08;93814.34;;;9.97;100.00
38400;BME280;24180;42.676;23.320;2023-04-01T01:37:31;93784.63;;;9.84;100.00
38400;BME280;24180;42.676;23.320;2023-04-01T01:40:04;93792.72;;;9.81;100.00
38400;BME280;24180;42.676;23.320;2023-04-01T01:42:33;93812.59;;;9.97;100.00
38400;BME280;24180;42.676;23.320;2023-04-01T01:45:01;93804.16;;;9.95;100.00
38400;BME280;24180;42.676;23.320;2023-04-01T01:47:28;93776.88;;;9.93;100.00
38400;BME280;24180;42.676;23.320;2023-04-01T01:49:55;93801.56;;;10.03;100.00
38400;BME280;24180;42.676;23.320;2023-04-01T01:52:24;93782.03;;;10.01;100.00
38400;BME280;24180;42.676;23.320;2023-04-01T01:54:54;93803.06;;;10.22;100.00
38400;BME280;24180;42.676;23.320;2023-04-01T01:57:25;93793.50;;;10.14;100.00
38400;BME280;24180;42.676;23.320;2023-04-01T01:59:55;93804.97;;;10.28;100.00
38400;BME280;24180;42.676;23.320;2023-04-01T02:02:23;93771.03;;;10.23;100.00
38400;BME280;24180;42.676;23.320;2023-04-01T02:04:51;93791.53;;;10.41;100.00
38400;BME280;24180;42.676;23.320;2023-04-01T02:07:25;93780.22;;;10.42;100.00
38400;BME280;24180;42.676;23.320;2023-04-01T02:09:53;93783.75;;;10.41;100.00
38400;BME280;24180;42.676;23.320;2023-04-01T02:12:19;93774.81;;;10.51;100.00
38400;BME280;24180;42.676;23.320;2023-04-01T02:17:25;93782.94;;;10.48;100.00
38400;BME280;24180;42.676;23.320;2023-04-01T02:20:19;93779.69;;;10.54;100.00
38400;BME280;24180;42.676;23.320;2023-04-01T02:22:54;93776.13;;;10.47;100.00
38400;BME280;24180;42.676;23.320;2023-04-01T02:25:24;93759.88;;;10.22;100.00
38400;BME280;24180;42.676;23.320;2023-04-01T02:27:51;93746.47;;;10.27;100.00
38400;BME280;24180;42.676;23.320;2023-04-01T02:30:18;93779.38;;;10.49;100.00
38400;BME280;24180;42.676;23.320;2023-04-01T02:32:44;93790.16;;;10.61;100.00
38400;BME280;24180;42.676;23.320;2023-04-01T02:35:11;93766.28;;;10.51;100.00
38400;BME280;24180;42.676;23.320;2023-04-01T02:37:39;93775.19;;;10.40;100.00
38400;BME280;24180;42.676;23.320;2023-04-01T02:40:13;93779.22;;;10.51;100.00
38400;BME280;24180;42.676;23.320;2023-04-01T02:42:39;93765.38;;;10.03;100.00
38400;BME280;24180;42.676;23.320;2023-04-01T02:45:06;93775.56;;;10.21;100.00
38400;BME280;24180;42.676;23.320;2023-04-01T02:47:31;93763.13;;;10.16;100.00
38400;BME280;24180;42.676;23.320;2023-04-01T02:49:57;93792.00;;;10.44;100.00
38400;BME280;24180;42.676;23.320;2023-04-01T02:52:26;93775.88;;;10.10;100.00
38400;BME280;24180;42.676;23.320;2023-04-01T02:54:51;93807.16;;;10.55;100.00
38400;BME280;24180;42.676;23.320;2023-04-01T02:57:17;93779.88;;;10.37;100.00
38400;BME280;24180;42.676;23.320;2023-04-01T02:59:42;93800.25;;;10.40;100.00
38400;BME280;24180;42.676;23.320;2023-04-01T03:02:08;93774.72;;;10.28;100.00
38400;BME280;24180;42.676;23.320;2023-04-01T03:04:33;93817.03;;;10.60;100.00
38400;BME280;24180;42.676;23.320;2023-04-01T03:06:59;93818.69;;;10.37;100.00
38400;BME280;24180;42.676;23.320;2023-04-01T03:09:24;93824.19;;;10.50;100.00
38400;BME280;24180;42.676;23.320;2023-04-01T03:11:49;93820.88;;;10.64;100.00
38400;BME280;24180;42.676;23.320;2023-04-01T03:14:15;93761.81;;;10.20;100.00
38400;BME280;24180;42.676;23.320;2023-04-01T03:16:40;93814.59;;;10.66;100.00
38400;BME280;24180;42.676;23.320;2023-04-01T03:19:06;93791.84;;;10.46;100.00
38400;BME280;24180;42.676;23.320;2023-04-01T03:21:31;93805.56;;;10.54;100.00
38400;BME280;24180;42.676;23.320;2023-04-01T03:23:56;93807.31;;;10.62;100.00
38400;BME280;24180;42.676;23.320;2023-04-01T03:26:22;93814.59;;;10.66;100.00
38400;BME280;24180;42.676;23.320;2023-04-01T03:28:47;93809.31;;;10.44;100.00
38400;BME280;24180;42.676;23.320;2023-04-01T03:31:13;93846.13;;;10.70;100.00
38400;BME280;24180;42.676;23.320;2023-04-01T03:33:40;93804.63;;;10.39;100.00
38400;BME280;24180;42.676;23.320;2023-04-01T03:36:05;93813.66;;;10.43;100.00
38400;BME280;24180;42.676;23.320;2023-04-01T03:38:33;93788.47;;;10.13;100.00
38400;BME280;24180;42.676;23.320;2023-04-01T03:40:58;93822.72;;;10.47;100.00
38400;BME280;24180;42.676;23.320;2023-04-01T03:43:24;93790.44;;;10.27;100.00
38400;BME280;24180;42.676;23.320;2023-04-01T03:45:51;93798.63;;;10.47;100.00
38400;BME280;24180;42.676;23.320;2023-04-01T03:48:17;93780.69;;;10.45;100.00
38400;BME280;24180;42.676;23.320;2023-04-01T03:50:43;93745.00;;;10.16;100.00
38400;BME280;24180;42.676;23.320;2023-04-01T03:53:09;93735.28;;;10.26;100.00
38400;BME280;24180;42.676;23.320;2023-04-01T03:55:36;93728.81;;;10.30;100.00
38400;BME280;24180;42.676;23.320;2023-04-01T03:58:01;93726.00;;;10.40;100.00
38400;BME280;24180;42.676;23.320;2023-04-01T04:00:28;93705.53;;;10.30;100.00
38400;BME280;24180;42.676;23.320;2023-04-01T04:02:55;93696.13;;;10.38;100.00
38400;BME280;24180;42.676;23.320;2023-04-01T04:05:24;93714.59;;;10.65;100.00
38400;BME280;24180;42.676;23.320;2023-04-01T04:07:50;93706.47;;;10.68;100.00
38400;BME280;24180;42.676;23.320;2023-04-01T04:10:16;93678.50;;;10.64;100.00
38400;BME280;24180;42.676;23.320;2023-04-01T04:12:41;93670.44;;;10.67;100.00
38400;BME280;24180;42.676;23.320;2023-04-01T04:15:07;93665.88;;;10.69;100.00
38400;BME280;24180;42.676;23.320;2023-04-01T04:17:33;93664.66;;;10.57;100.00
38400;BME280;24180;42.676;23.320;2023-04-01T04:19:58;93687.50;;;10.76;100.00
38400;BME280;24180;42.676;23.320;2023-04-01T04:22:24;93669.16;;;10.63;100.00
38400;BME280;24180;42.676;23.320;2023-04-01T04:24:49;93660.44;;;10.56;100.00
38400;BME280;24180;42.676;23.320;2023-04-01T04:27:15;93677.19;;;10.68;100.00
38400;BME280;24180;42.676;23.320;2023-04-01T04:29:40;93666.84;;;10.68;100.00
38400;BME280;24180;42.676;23.320;2023-04-01T04:32:06;93665.56;;;10.64;100.00
38400;BME280;24180;42.676;23.320;2023-04-01T04:34:32;93666.88;;;10.60;100.00
38400;BME280;24180;42.676;23.320;2023-04-01T04:36:58;93669.81;;;10.57;100.00
38400;BME280;24180;42.676;23.320;2023-04-01T04:39:23;93658.81;;;10.63;100.00
38400;BME280;24180;42.676;23.320;2023-04-01T04:41:49;93611.63;;;10.22;100.00
38400;BME280;24180;42.676;23.320;2023-04-01T04:44:14;93671.41;;;10.66;100.00
38400;BME280;24180;42.676;23.320;2023-04-01T04:46:40;93665.25;;;10.67;100.00
38400;BME280;24180;42.676;23.320;2023-04-01T04:49:06;93647.69;;;10.54;100.00
38400;BME280;24180;42.676;23.320;2023-04-01T04:51:31;93644.63;;;10.51;100.00
38400;BME280;24180;42.676;23.320;2023-04-01T04:53:59;93637.22;;;10.40;100.00
38400;BME280;24180;42.676;23.320;2023-04-01T04:56:26;93607.56;;;10.19;100.00
38400;BME280;24180;42.676;23.320;2023-04-01T04:58:51;93623.25;;;10.26;100.00
38400;BME280;24180;42.676;23.320;2023-04-01T05:01:18;93652.00;;;10.31;100.00
38400;BME280;24180;42.676;23.320;2023-04-01T05:03:44;93661.28;;;10.17;100.00
38400;BME280;24180;42.676;23.320;2023-04-01T05:06:12;93601.38;;;9.90;100.00
38400;BME280;24180;42.676;23.320;2023-04-01T05:08:38;93624.81;;;9.88;100.00
38400;BME280;24180;42.676;23.320;2023-04-01T05:11:07;93637.72;;;9.88;100.00
38400;BME280;24180;42.676;23.320;2023-04-01T05:13:35;93621.06;;;9.99;100.00
38400;BME280;24180;42.676;23.320;2023-04-01T05:16:01;93632.22;;;9.91;100.00
38400;BME280;24180;42.676;23.320;2023-04-01T05:18:27;93613.38;;;9.74;100.00
38400;BME280;24180;42.676;23.320;2023-04-01T05:20:54;93585.94;;;9.65;100.00
38400;BME280;24180;42.676;23.320;2023-04-01T05:23:21;93578.53;;;9.62;100.00
38400;BME280;24180;42.676;23.320;2023-04-01T05:25:50;93606.31;;;9.60;100.00
38400;BME280;24180;42.676;23.320;2023-04-01T05:28:18;93570.81;;;9.46;100.00
38400;BME280;24180;42.676;23.320;2023-04-01T05:30:44;93588.03;;;9.70;100.00
38400;BME280;24180;42.676;23.320;2023-04-01T05:33:10;93612.25;;;9.69;100.00
38400;BME280;24180;42.676;23.320;2023-04-01T05:35:36;93604.66;;;9.67;100.00
38400;BME280;24180;42.676;23.320;2023-04-01T05:38:02;93608.00;;;9.84;100.00
38400;BME280;24180;42.676;23.320;2023-04-01T05:40:28;93608.31;;;9.89;100.00
38400;BME280;24180;42.676;23.320;2023-04-01T05:42:54;93604.09;;;9.96;100.00
38400;BME280;24180;42.676;23.320;2023-04-01T05:45:20;93600.50;;;10.05;100.00
38400;BME280;24180;42.676;23.320;2023-04-01T05:47:45;93596.25;;;10.20;100.00
38400;BME280;24180;42.676;23.320;2023-04-01T05:50:11;93589.97;;;10.23;100.00
38400;BME280;24180;42.676;23.320;2023-04-01T05:52:37;93596.00;;;10.38;100.00
38400;BME280;24180;42.676;23.320;2023-04-01T05:55:03;93595.50;;;10.43;100.00
38400;BME280;24180;42.676;23.320;2023-04-01T05:57:29;93564.09;;;10.46;100.00
38400;BME280;24180;42.676;23.320;2023-04-01T05:59:55;93582.31;;;10.83;100.00
38400;BME280;24180;42.676;23.320;2023-04-01T06:02:20;93553.03;;;10.97;100.00
38400;BME280;24180;42.676;23.320;2023-04-01T06:04:46;93579.31;;;11.46;100.00
38400;BME280;24180;42.676;23.320;2023-04-01T06:07:17;93577.28;;;11.86;100.00
38400;BME280;24180;42.676;23.320;2023-04-01T06:09:44;93580.81;;;12.29;100.00
38400;BME280;24180;42.676;23.320;2023-04-01T06:18:31;93595.16;;;13.24;100.00
38400;BME280;24180;42.676;23.320;2023-04-01T06:23:48;93574.97;;;13.47;100.00
38400;BME280;24180;42.676;23.320;2023-04-01T06:34:29;93578.16;;;13.77;96.32
38400;BME280;24180;42.676;23.320;2023-04-01T06:47:56;93551.69;;;13.67;99.86
38400;BME280;24180;42.676;23.320;2023-04-01T06:54:04;93549.44;;;13.64;100.00
38400;BME280;24180;42.676;23.320;2023-04-01T06:56:32;93515.63;;;13.64;100.00
38400;BME280;24180;42.676;23.320;2023-04-01T06:59:14;93524.03;;;13.59;100.00
38400;BME280;24180;42.676;23.320;2023-04-01T07:04:44;93522.31;;;13.39;100.00
38400;BME280;24180;42.676;23.320;2023-04-01T07:07:41;93542.53;;;13.43;100.00
38400;BME280;24180;42.676;23.320;2023-04-01T07:10:17;93515.88;;;13.35;100.00
38400;BME280;24180;42.676;23.320;2023-04-01T07:12:50;93529.28;;;13.73;100.00
38400;BME280;24180;42.676;23.320;2023-04-01T07:15:37;93537.06;;;13.66;100.00
38400;BME280;24180;42.676;23.320;2023-04-01T07:18:15;93520.97;;;13.49;100.00
38400;BME280;24180;42.676;23.320;2023-04-01T07:20:42;93488.16;;;13.48;100.00
38400;BME280;24180;42.676;23.320;2023-04-01T07:23:31;93516.94;;;13.81;100.00
38400;BME280;24180;42.676;23.320;2023-04-01T07:26:11;93514.56;;;13.86;100.00
38400;BME280;24180;42.676;23.320;2023-04-01T07:28:39;93509.78;;;13.90;100.00
38400;BME280;24180;42.676;23.320;2023-04-01T07:34:12;93536.03;;;14.49;100.00
38400;BME280;24180;42.676;23.320;2023-04-01T07:42:29;93527.53;;;14.27;100.00
38400;BME280;24180;42.676;23.320;2023-04-01T07:50:35;93516.66;;;14.11;100.00
38400;BME280;24180;42.676;23.320;2023-04-01T08:00:51;93506.59;;;14.01;100.00
38400;BME280;24180;42.676;23.320;2023-04-01T08:09:34;93517.66;;;14.10;100.00
38400;BME280;24180;42.676;23.320;2023-04-01T08:11:56;93496.56;;;14.45;100.00
38400;BME280;24180;42.676;23.320;2023-04-01T08:14:38;93489.81;;;14.64;100.00
38400;BME280;24180;42.676;23.320;2023-04-01T08:22:23;93473.34;;;15.10;100.00
38400;BME280;24180;42.676;23.320;2023-04-01T08:24:53;93474.72;;;15.38;99.59
38400;BME280;24180;42.676;23.320;2023-04-01T08:27:31;93467.06;;;15.57;98.05
38400;BME280;24180;42.676;23.320;2023-04-01T08:32:47;93443.22;;;15.53;96.33
38400;BME280;24180;42.676;23.320;2023-04-01T08:35:38;93411.50;;;15.43;97.26
38400;BME280;24180;42.676;23.320;2023-04-01T08:38:13;93393.25;;;15.56;96.54
38400;BME280;24180;42.676;23.320;2023-04-01T08:41:01;93397.44;;;15.64;96.01
38400;BME280;24180;42.676;23.320;2023-04-01T08:46:38;93410.31;;;15.52;97.05
38400;BME280;24180;42.676;23.320;2023-04-01T09:00:53;93376.19;;;16.54;88.54
38400;BME280;24180;42.676;23.320;2023-04-01T09:09:02;93380.53;;;17.53;76.02
38400;BME280;24180;42.676;23.320;2023-04-01T09:14:38;93406.22;;;17.81;65.71
38400;BME280;24180;42.676;23.320;2023-04-01T09:22:47;93397.03;;;18.49;59.99
38400;BME280;24180;42.676;23.320;2023-04-01T09:28:34;93379.53;;;18.32;61.64
38400;BME280;24180;42.676;23.320;2023-04-01T09:34:25;93371.47;;;18.33;61.59
38400;BME280;24180;42.676;23.320;2023-04-01T09:44:48;93327.19;;;18.78;57.73
38400;BME280;24180;42.676;23.320;2023-04-01T09:47:43;93337.44;;;19.14;56.91
38400;BME280;24180;42.676;23.320;2023-04-01T09:58:32;93324.78;;;20.31;50.82
38400;BME280;24180;42.676;23.320;2023-04-01T10:15:33;93299.63;;;21.89;44.02
38400;BME280;24180;42.676;23.320;2023-04-01T10:24:06;93285.50;;;20.91;47.07
38400;BME280;24180;42.676;23.320;2023-04-01T10:37:54;93288.06;;;19.91;51.36
38400;BME280;24180;42.676;23.320;2023-04-01T10:56:54;93215.78;;;18.11;60.76
38400;BME280;24180;42.676;23.320;2023-04-01T11:03:06;93231.47;;;17.88;63.24
38400;BME280;24180;42.676;23.320;2023-04-01T11:06:05;93243.44;;;17.95;64.08
38400;BME280;24180;42.676;23.320;2023-04-01T11:19:54;93237.22;;;18.08;63.59
38400;BME280;24180;42.676;23.320;2023-04-01T11:32:53;93305.88;;;16.77;63.72
38400;BME280;24180;42.676;23.320;2023-04-01T11:54:32;93496.06;;;11.56;100.00
38400;BME280;24180;42.676;23.320;2023-04-01T11:57:28;93491.88;;;11.11;100.00
38400;BME280;24180;42.676;23.320;2023-04-01T12:00:02;93485.91;;;10.73;100.00
38400;BME280;24180;42.676;23.320;2023-04-01T12:03:00;93493.88;;;10.49;100.00
38400;BME280;24180;42.676;23.320;2023-04-01T12:08:33;93469.44;;;10.28;100.00
38400;BME280;24180;42.676;23.320;2023-04-01T12:11:21;93474.09;;;10.10;100.00
38400;BME280;24180;42.676;23.320;2023-04-01T12:14:07;93462.06;;;9.95;100.00
38400;BME280;24180;42.676;23.320;2023-04-01T12:16:58;93455.91;;;10.26;100.00
38400;BME280;24180;42.676;23.320;2023-04-01T12:27:23;93445.88;;;11.42;100.00
38400;BME280;24180;42.676;23.320;2023-04-01T12:56:40;93377.66;;;10.39;100.00
38400;BME280;24180;42.676;23.320;2023-04-01T13:21:19;93346.28;;;12.98;100.00
38400;BME280;24180;42.676;23.320;2023-04-01T13:29:23;93352.72;;;13.43;100.00
38400;BME280;24180;42.676;23.320;2023-04-01T13:37:52;93321.47;;;13.30;100.00
38400;BME280;24180;42.676;23.320;2023-04-01T13:40:42;93343.13;;;13.44;100.00
38400;BME280;24180;42.676;23.320;2023-04-01T13:43:31;93334.81;;;13.75;100.00
38400;BME280;24180;42.676;23.320;2023-04-01T13:46:40;93331.44;;;14.00;100.00
38400;BME280;24180;42.676;23.320;2023-04-01T13:58:09;93332.78;;;15.02;100.00
38400;BME280;24180;42.676;23.320;2023-04-01T14:01:01;93336.03;;;14.90;100.00
38400;BME280;24180;42.676;23.320;2023-04-01T14:17:46;93308.25;;;14.32;100.00
38400;BME280;24180;42.676;23.320;2023-04-01T14:23:30;93303.81;;;14.26;100.00
38400;BME280;24180;42.676;23.320;2023-04-01T14:25:58;93297.22;;;14.30;100.00
38400;BME280;24180;42.676;23.320;2023-04-01T14:37:33;93280.44;;;15.10;100.00
38400;BME280;24180;42.676;23.320;2023-04-01T14:40:27;93293.53;;;15.41;100.00
38400;BME280;24180;42.676;23.320;2023-04-01T14:46:09;93296.13;;;15.54;100.00
38400;BME280;24180;42.676;23.320;2023-04-01T14:48:51;93293.03;;;15.19;100.00
38400;BME280;24180;42.676;23.320;2023-04-01T14:51:36;93291.47;;;15.05;100.00
38400;BME280;24180;42.676;23.320;2023-04-01T14:54:20;93281.34;;;14.77;100.00
38400;BME280;24180;42.676;23.320;2023-04-01T14:57:01;93287.38;;;14.71;100.00
38400;BME280;24180;42.676;23.320;2023-04-01T14:59:29;93289.59;;;14.68;100.00
38400;BME280;24180;42.676;23.320;2023-04-01T15:13:13;93305.72;;;15.03;100.00
38400;BME280;24180;42.676;23.320;2023-04-01T15:21:54;93324.06;;;14.70;100.00
38400;BME280;24180;42.676;23.320;2023-04-01T15:27:28;93311.63;;;14.26;100.00
38400;BME280;24180;42.676;23.320;2023-04-01T15:30:18;93323.44;;;14.08;100.00
38400;BME280;24180;42.676;23.320;2023-04-01T15:36:00;93311.25;;;13.96;100.00
38400;BME280;24180;42.676;23.320;2023-04-01T15:38:48;93322.63;;;14.01;100.00
38400;BME280;24180;42.676;23.320;2023-04-01T15:41:28;93328.03;;;13.87;100.00
38400;BME280;24180;42.676;23.320;2023-04-01T15:44:01;93320.38;;;13.66;100.00
38400;BME280;24180;42.676;23.320;2023-04-01T15:54:48;93528.41;;;11.01;100.00
38400;BME280;24180;42.676;23.320;2023-04-01T16:03:33;93576.88;;;8.66;100.00
38400;BME280;24180;42.676;23.320;2023-04-01T16:22:31;93570.88;;;7.49;100.00
38400;BME280;24180;42.676;23.320;2023-04-01T16:31:25;93556.44;;;7.56;100.00
38400;BME280;24180;42.676;23.320;2023-04-01T16:37:10;93569.31;;;7.56;100.00
38400;BME280;24180;42.676;23.320;2023-04-01T16:45:30;93581.59;;;7.62;100.00
38400;BME280;24180;42.676;23.320;2023-04-01T16:48:17;93595.09;;;7.64;100.00
38400;BME280;24180;42.676;23.320;2023-04-01T16:50:56;93587.50;;;7.63;100.00
38400;BME280;24180;42.676;23.320;2023-04-01T16:53:41;93575.13;;;7.58;100.00
38400;BME280;24180;42.676;23.320;2023-04-01T16:59:03;93561.72;;;7.54;100.00
38400;BME280;24180;42.676;23.320;2023-04-01T17:01:49;93592.88;;;7.69;100.00
38400;BME280;24180;42.676;23.320;2023-04-01T17:12:39;93606.28;;;7.81;100.00
38400;BME280;24180;42.676;23.320;2023-04-01T17:18:11;93592.41;;;7.74;100.00
38400;BME280;24180;42.676;23.320;2023-04-01T17:20:43;93630.97;;;7.91;100.00
38400;BME280;24180;42.676;23.320;2023-04-01T17:25:57;93626.63;;;7.92;100.00
38400;BME280;24180;42.676;23.320;2023-04-01T17:39:36;93640.44;;;7.83;100.00
38400;BME280;24180;42.676;23.320;2023-04-01T18:01:09;93681.78;;;7.73;100.00
38400;BME280;24180;42.676;23.320;2023-04-01T18:04:14;93697.34;;;7.64;100.00
38400;BME280;24180;42.676;23.320;2023-04-01T18:12:34;93681.28;;;7.44;100.00
38400;BME280;24180;42.676;23.320;2023-04-01T18:15:27;93691.78;;;7.50;100.00
38400;BME280;24180;42.676;23.320;2023-04-01T18:20:47;93724.72;;;7.65;100.00
38400;BME280;24180;42.676;23.320;2023-04-01T18:24:03;93728.63;;;7.69;100.00
38400;BME280;24180;42.676;23.320;2023-04-01T18:26:33;93728.16;;;7.73;100.00
38400;BME280;24180;42.676;23.320;2023-04-01T18:29:08;93681.47;;;7.50;100.00
38400;BME280;24180;42.676;23.320;2023-04-01T18:31:42;93698.00;;;7.66;100.00
38400;BME280;24180;42.676;23.320;2023-04-01T18:34:39;93670.66;;;7.47;100.00
38400;BME280;24180;42.676;23.320;2023-04-01T18:37:39;93706.25;;;7.69;100.00
38400;BME280;24180;42.676;23.320;2023-04-01T18:45:43;93718.75;;;7.64;100.00
38400;BME280;24180;42.676;23.320;2023-04-01T18:51:03;93698.28;;;7.63;100.00
38400;BME280;24180;42.676;23.320;2023-04-01T18:56:26;93706.44;;;7.76;100.00
38400;BME280;24180;42.676;23.320;2023-04-01T18:59:12;93692.13;;;7.56;100.00
38400;BME280;24180;42.676;23.320;2023-04-01T19:01:55;93736.59;;;7.83;100.00
38400;BME280;24180;42.676;23.320;2023-04-01T19:07:39;93746.75;;;7.85;100.00
38400;BME280;24180;42.676;23.320;2023-04-01T19:10:17;93736.72;;;7.74;100.00
38400;BME280;24180;42.676;23.320;2023-04-01T19:13:38;93759.69;;;7.93;100.00
38400;BME280;24180;42.676;23.320;2023-04-01T19:15:49;93770.41;;;8.06;100.00
38400;BME280;24180;42.676;23.320;2023-04-01T19:21:32;93747.50;;;8.03;100.00
38400;BME280;24180;42.676;23.320;2023-04-01T19:30:05;93766.44;;;8.20;100.00
38400;BME280;24180;42.676;23.320;2023-04-01T19:33:02;93785.50;;;8.27;100.00
38400;BME280;24180;42.676;23.320;2023-04-01T19:41:34;93813.63;;;8.12;100.00
38400;BME280;24180;42.676;23.320;2023-04-01T19:44:41;93815.56;;;8.10;100.00
38400;BME280;24180;42.676;23.320;2023-04-01T19:47:19;93812.97;;;8.10;100.00
38400;BME280;24180;42.676;23.320;2023-04-01T19:52:39;93780.31;;;7.93;100.00
38400;BME280;24180;42.676;23.320;2023-04-01T20:00:56;93822.66;;;8.16;100.00
38400;BME280;24180;42.676;23.320;2023-04-01T20:03:49;93816.19;;;8.12;100.00
38400;BME280;24180;42.676;23.320;2023-04-01T20:08:50;93803.25;;;8.04;100.00
38400;BME280;24180;42.676;23.320;2023-04-01T20:19:29;93777.44;;;7.96;100.00
38400;BME280;24180;42.676;23.320;2023-04-01T20:21:58;93814.28;;;8.14;100.00
38400;BME280;24180;42.676;23.320;2023-04-01T20:24:41;93819.53;;;8.05;100.00
38400;BME280;24180;42.676;23.320;2023-04-01T20:27:14;93818.91;;;8.11;100.00
38400;BME280;24180;42.676;23.320;2023-04-01T20:36:03;93822.94;;;8.05;100.00
38400;BME280;24180;42.676;23.320;2023-04-01T20:41:53;93833.88;;;8.07;100.00
38400;BME280;24180;42.676;23.320;2023-04-01T20:44:44;93833.25;;;8.05;100.00
38400;BME280;24180;42.676;23.320;2023-04-01T20:47:45;93818.31;;;7.91;100.00
38400;BME280;24180;42.676;23.320;2023-04-01T20:56:13;93835.16;;;8.03;100.00
38400;BME280;24180;42.676;23.320;2023-04-01T20:58:53;93809.94;;;7.89;100.00
38400;BME280;24180;42.676;23.320;2023-04-01T21:01:39;93803.97;;;7.88;100.00
38400;BME280;24180;42.676;23.320;2023-04-01T21:14:33;93829.84;;;8.05;100.00
38400;BME280;24180;42.676;23.320;2023-04-01T21:17:22;93845.78;;;8.26;100.00
38400;BME280;24180;42.676;23.320;2023-04-01T21:22:56;93853.34;;;8.45;100.00
38400;BME280;24180;42.676;23.320;2023-04-01T21:25:50;93870.28;;;8.48;100.00
38400;BME280;24180;42.676;23.320;2023-04-01T21:31:05;93860.28;;;8.44;100.00
38400;BME280;24180;42.676;23.320;2023-04-01T22:00:34;93828.72;;;8.07;100.00
38400;BME280;24180;42.676;23.320;2023-04-01T22:06:06;93866.88;;;8.21;100.00
38400;BME280;24180;42.676;23.320;2023-04-01T22:09:41;93864.25;;;8.13;100.00
38400;BME280;24180;42.676;23.320;2023-04-01T22:14:36;93856.44;;;8.05;100.00
38400;BME280;24180;42.676;23.320;2023-04-01T22:19:47;93837.53;;;7.79;100.00
38400;BME280;24180;42.676;23.320;2023-04-01T22:32:48;93843.94;;;7.75;100.00
38400;BME280;24180;42.676;23.320;2023-04-01T22:35:43;93848.09;;;7.85;100.00
38400;BME280;24180;42.676;23.320;2023-04-01T22:44:17;93864.94;;;7.97;100.00
38400;BME280;24180;42.676;23.320;2023-04-01T22:46:59;93835.78;;;7.79;100.00
38400;BME280;24180;42.676;23.320;2023-04-01T22:49:39;93858.91;;;7.89;100.00
38400;BME280;24180;42.676;23.320;2023-04-01T22:52:32;93869.78;;;8.00;100.00
38400;BME280;24180;42.676;23.320;2023-04-01T22:55:17;93855.66;;;7.87;100.00
38400;BME280;24180;42.676;23.320;2023-04-01T22:58:01;93878.03;;;8.04;100.00
38400;BME280;24180;42.676;23.320;2023-04-01T23:00:48;93854.91;;;7.94;100.00
38400;BME280;24180;42.676;23.320;2023-04-01T23:03:30;93884.94;;;8.21;100.00
38400;BME280;24180;42.676;23.320;2023-04-01T23:05:58;93888.81;;;8.25;100.00
38400;BME280;24180;42.676;23.320;2023-04-01T23:11:30;93854.13;;;8.20;100.00
38400;BME280;24180;42.676;23.320;2023-04-01T23:17:07;93847.19;;;8.20;100.00
38400;BME280;24180;42.676;23.320;2023-04-01T23:20:24;93863.16;;;8.24;100.00
38400;BME280;24180;42.676;23.320;2023-04-01T23:33:20;93873.03;;;8.28;100.00
38400;BME280;24180;42.676;23.320;2023-04-01T23:35:58;93860.75;;;8.22;100.00